Terminal Aerodrome Forecast
Issued by NWS Topeka, KS

Home | Current Version | Previous Version | Text Only | Print | Product List | Glossary Off
Versions: 1 2 3 4 5 6 7 8 9 10 11 12 13 14 15 16 17 18 19

000
FTUS43 KTOP 171700
TAFTOP
TAF
KTOP 171725Z 1718/1818 04007KT P6SM SCT040
     FM180000 08002KT P6SM SKC
      TEMPO 1809/1813 3SM BR
     FM181400 16007KT P6SM SCT120=

USA.gov is the U.S. government's official web portal to all federal, state and local government web resources and services.